FABB weather

Brakpan Airport
Brakpan, Gauteng, South Africa

Public forecast

Using degrees Celsius for public forecast. Weather courtesy of forecast.io.

Closest aviation weather report (METAR) to Brakpan Airport

Report is more than 6 hours old.

Closest report is Springs Airfield, 5.2 nm (9.7 km) E. Retrieved 2020/03/17 16:00 UTC (3 months ago):

FASI 171600Z AUTO 25001KT //// // ////// 16/14 Q1028

Closest aviation forecast (TAF) to Brakpan Airport

Closest forecast is OR Tambo International Airport, 6.7 nm (12.4 km) NNW. Retrieved 2020/06/01 06:00 UTC (2 hours ago):

TAF FAOR 010400Z 0106/0212 VRB03KT CAVOK TX22/0212Z TN06/0204Z BECMG 0107/0109 18007KT BECMG 0202/0204 VRB03KT